createdAt,value
2023-01-29T00:02:23.725Z,76.90
2023-01-29T00:04:51.216Z,76.90
2023-01-29T00:07:18.811Z,76.90
2023-01-29T00:09:46.272Z,76.90
2023-01-29T00:12:13.881Z,76.90
2023-01-29T00:14:41.358Z,76.90
2023-01-29T00:17:10.495Z,76.90
2023-01-29T00:19:37.991Z,76.90
2023-01-29T00:22:05.895Z,76.80
2023-01-29T00:24:33.476Z,76.90
2023-01-29T00:27:01.093Z,76.90
2023-01-29T00:29:28.653Z,76.80
2023-01-29T00:31:56.498Z,76.80
2023-01-29T00:34:24.194Z,76.90
2023-01-29T00:36:51.897Z,76.90
2023-01-29T00:39:29.387Z,77.40
2023-01-29T00:42:22.075Z,76.90
2023-01-29T00:44:58.324Z,76.90
2023-01-29T00:47:33.846Z,77.00
2023-01-29T00:50:07.107Z,77.00
2023-01-29T00:52:36.607Z,77.00
2023-01-29T00:55:05.994Z,77.00
2023-01-29T00:57:35.670Z,77.00
2023-01-29T01:00:09.233Z,77.00
2023-01-29T01:02:55.484Z,77.00
2023-01-29T01:05:23.240Z,77.10
2023-01-29T01:07:53.616Z,77.10
2023-01-29T01:10:25.195Z,77.10
2023-01-29T01:13:04.717Z,77.10
2023-01-29T01:15:36.686Z,77.10
2023-01-29T01:18:05.063Z,77.10
2023-01-29T01:20:35.016Z,77.10
2023-01-29T01:23:04.405Z,77.20
2023-01-29T01:25:31.961Z,77.20
2023-01-29T01:28:03.291Z,77.20
2023-01-29T01:30:30.910Z,77.20
2023-01-29T01:32:59.456Z,77.20
2023-01-29T01:35:27.083Z,77.30
2023-01-29T01:37:54.795Z,77.30
2023-01-29T01:40:23.988Z,77.40
2023-01-29T01:42:53.505Z,77.40
2023-01-29T01:45:30.810Z,77.30
2023-01-29T01:48:25.466Z,77.40
2023-01-29T01:51:03.651Z,77.50
2023-01-29T01:53:42.170Z,77.40
2023-01-29T01:56:20.554Z,77.50
2023-01-29T01:58:52.822Z,77.50
2023-01-29T02:01:30.373Z,78.10
2023-01-29T02:04:29.760Z,77.50
2023-01-29T02:07:19.374Z,77.60
2023-01-29T02:09:54.062Z,77.70
2023-01-29T02:12:22.937Z,77.80
2023-01-29T02:14:52.668Z,77.80
2023-01-29T02:17:21.195Z,77.90
2023-01-29T02:20:12.257Z,77.80
2023-01-29T02:22:55.561Z,77.90
2023-01-29T02:25:59.549Z,77.90
2023-01-29T02:28:54.103Z,77.80
2023-01-29T02:31:44.509Z,77.80
2023-01-29T02:34:52.095Z,77.90
2023-01-29T02:37:24.908Z,78.00
2023-01-29T02:40:08.959Z,78.10
2023-01-29T02:42:51.612Z,78.10
2023-01-29T02:45:43.817Z,78.20
2023-01-29T02:48:20.875Z,78.20
2023-01-29T02:51:06.352Z,78.20
2023-01-29T02:53:41.400Z,78.30
2023-01-29T02:56:20.847Z,78.50
2023-01-29T02:59:19.177Z,78.50
2023-01-29T03:01:58.932Z,78.40
2023-01-29T03:04:33.410Z,78.50
2023-01-29T03:07:10.911Z,78.60
2023-01-29T03:09:44.876Z,78.60
2023-01-29T03:12:50.365Z,78.70
2023-01-29T03:15:39.407Z,78.70
2023-01-29T03:18:28.061Z,78.80
2023-01-29T03:21:25.203Z,78.80
2023-01-29T03:24:14.230Z,79.00
2023-01-29T03:27:02.872Z,79.00
2023-01-29T03:29:57.027Z,79.10
2023-01-29T03:32:36.362Z,79.30
2023-01-29T03:35:07.271Z,79.40
2023-01-29T03:37:45.789Z,79.70
2023-01-29T03:40:15.427Z,79.90
2023-01-29T03:43:10.535Z,79.80
2023-01-29T03:45:43.014Z,79.90
2023-01-29T03:48:30.828Z,79.90
2023-01-29T03:51:27.972Z,80.20
2023-01-29T03:54:18.982Z,80.10
2023-01-29T03:57:00.790Z,80.10
2023-01-29T03:59:40.263Z,80.40
2023-01-29T04:02:35.250Z,80.70
2023-01-29T04:05:17.289Z,80.60
2023-01-29T04:08:05.352Z,80.70
2023-01-29T04:10:36.787Z,80.70
2023-01-29T04:13:10.872Z,80.70
2023-01-29T04:16:04.434Z,80.60
2023-01-29T04:18:52.886Z,80.70
2023-01-29T04:21:27.359Z,80.70
2023-01-29T04:23:54.983Z,80.50
2023-01-29T04:26:50.668Z,80.70
2023-01-29T04:29:42.124Z,80.80
2023-01-29T04:32:32.509Z,80.60
2023-01-29T04:35:25.002Z,80.70
2023-01-29T04:38:07.707Z,80.80
2023-01-29T04:40:54.061Z,80.80
2023-01-29T04:43:31.126Z,80.60
2023-01-29T04:46:12.803Z,80.70
2023-01-29T04:48:50.490Z,80.70
2023-01-29T04:51:25.203Z,80.90
2023-01-29T04:54:07.956Z,81.00
2023-01-29T04:57:06.085Z,81.20
2023-01-29T04:59:47.604Z,81.10
2023-01-29T05:02:15.195Z,81.10
2023-01-29T05:04:45.453Z,81.20
2023-01-29T05:07:15.225Z,81.00
2023-01-29T05:09:45.832Z,81.20
2023-01-29T05:12:16.302Z,81.40
2023-01-29T05:14:46.055Z,81.40
2023-01-29T05:17:18.029Z,81.30
2023-01-29T05:19:46.713Z,81.40
2023-01-29T05:22:17.884Z,81.30
2023-01-29T05:24:46.758Z,81.30
2023-01-29T05:27:58.909Z,81.30
2023-01-29T05:30:26.451Z,81.30
2023-01-29T05:32:53.942Z,81.30
2023-01-29T05:35:21.387Z,81.30
2023-01-29T05:37:48.902Z,81.30
2023-01-29T05:40:16.709Z,81.30
2023-01-29T05:42:44.422Z,81.30
2023-01-29T05:45:12.138Z,81.40
2023-01-29T05:47:39.787Z,81.40
2023-01-29T05:50:07.925Z,81.50
2023-01-29T05:52:35.440Z,81.50
2023-01-29T05:55:02.947Z,81.60
2023-01-29T05:57:30.406Z,81.60
2023-01-29T05:59:57.964Z,81.50
2023-01-29T06:02:32.220Z,81.70
2023-01-29T06:04:59.866Z,81.70
2023-01-29T06:07:27.438Z,81.70
2023-01-29T06:09:54.890Z,81.70
2023-01-29T06:12:22.374Z,81.70
2023-01-29T06:14:49.930Z,81.70
2023-01-29T06:17:17.467Z,81.60
2023-01-29T06:19:45.017Z,81.50
2023-01-29T06:22:12.541Z,81.50
2023-01-29T06:24:40.090Z,81.60
2023-01-29T06:27:07.631Z,81.50
2023-01-29T06:29:35.152Z,81.30
2023-01-29T06:32:02.757Z,81.20
2023-01-29T06:34:30.452Z,81.20
2023-01-29T06:36:58.055Z,81.10
2023-01-29T06:39:25.726Z,81.00
2023-01-29T06:41:53.253Z,81.10
2023-01-29T06:44:20.771Z,81.00
2023-01-29T06:46:48.316Z,80.90
2023-01-29T06:49:15.953Z,80.90
2023-01-29T06:51:43.519Z,80.80
2023-01-29T06:54:11.626Z,80.80
2023-01-29T06:56:39.152Z,80.80
2023-01-29T06:59:06.611Z,80.80
2023-01-29T07:01:36.371Z,80.80
2023-01-29T07:04:04.525Z,80.80
2023-01-29T07:06:32.968Z,80.80
2023-01-29T07:09:00.733Z,80.70
2023-01-29T07:11:28.250Z,80.70
2023-01-29T07:13:55.824Z,80.70
2023-01-29T07:16:23.757Z,80.70
2023-01-29T07:18:54.696Z,80.60
2023-01-29T07:21:22.262Z,80.60
2023-01-29T07:23:50.098Z,80.60
2023-01-29T07:26:17.961Z,80.60
2023-01-29T07:28:45.559Z,80.60
2023-01-29T07:31:14.847Z,80.60
2023-01-29T07:33:44.782Z,80.60
2023-01-29T07:36:13.517Z,80.60
2023-01-29T07:38:41.167Z,80.50
2023-01-29T07:41:09.471Z,80.60
2023-01-29T07:43:37.009Z,80.60
2023-01-29T07:46:05.688Z,80.60
2023-01-29T07:48:33.485Z,80.50
2023-01-29T07:51:01.350Z,80.60
2023-01-29T07:53:29.597Z,80.70
2023-01-29T07:55:57.607Z,80.80
2023-01-29T07:58:25.028Z,80.70
2023-01-29T08:00:52.711Z,80.80
2023-01-29T08:03:21.104Z,80.80
2023-01-29T08:05:48.877Z,80.90
2023-01-29T08:08:17.394Z,81.00
2023-01-29T08:10:44.921Z,81.10
2023-01-29T08:13:12.367Z,81.00
2023-01-29T08:15:42.605Z,81.10
2023-01-29T08:18:10.156Z,81.00
2023-01-29T08:20:37.862Z,81.10
2023-01-29T08:23:12.722Z,81.20
2023-01-29T08:25:40.315Z,81.20
2023-01-29T08:28:08.759Z,81.30
2023-01-29T08:30:36.993Z,81.30
2023-01-29T08:33:05.166Z,81.40
2023-01-29T08:35:33.056Z,81.40
2023-01-29T08:38:03.551Z,81.50
2023-01-29T08:40:35.298Z,81.60
2023-01-29T08:43:06.296Z,81.60
2023-01-29T08:45:38.624Z,81.60
2023-01-29T08:48:06.415Z,81.60
2023-01-29T08:50:35.227Z,81.60
2023-01-29T08:53:05.642Z,81.70
2023-01-29T08:55:33.268Z,81.80
2023-01-29T08:58:00.993Z,81.80
2023-01-29T09:00:28.475Z,82.00
2023-01-29T09:02:55.979Z,82.00
2023-01-29T09:05:23.650Z,82.00
2023-01-29T09:07:53.298Z,82.10
2023-01-29T09:10:21.038Z,82.10
2023-01-29T09:12:48.575Z,82.10
2023-01-29T09:15:16.355Z,82.20
2023-01-29T09:17:44.225Z,82.20
2023-01-29T09:20:12.172Z,82.20
2023-01-29T09:22:39.647Z,82.10
2023-01-29T09:25:07.830Z,82.10
2023-01-29T09:27:35.387Z,82.20
2023-01-29T09:30:03.496Z,82.30
2023-01-29T09:32:52.539Z,82.20
2023-01-29T09:35:18.822Z,82.10
2023-01-29T09:37:51.503Z,82.00
2023-01-29T09:40:37.329Z,81.90
2023-01-29T09:43:14.347Z,81.80
2023-01-29T09:46:13.749Z,81.70
2023-01-29T09:48:42.568Z,81.70
2023-01-29T09:51:22.622Z,81.70
2023-01-29T09:54:04.931Z,81.80
2023-01-29T09:56:32.832Z,81.60
2023-01-29T09:59:01.932Z,81.60
2023-01-29T10:01:40.434Z,81.60
2023-01-29T10:04:43.049Z,81.70
2023-01-29T10:07:27.027Z,81.60
2023-01-29T10:10:35.977Z,81.50
2023-01-29T10:13:31.754Z,81.50
2023-01-29T10:16:11.872Z,81.50
2023-01-29T10:19:28.810Z,81.50
2023-01-29T10:22:34.806Z,81.60
2023-01-29T10:25:06.099Z,81.60
2023-01-29T10:27:38.706Z,81.70
2023-01-29T10:30:26.934Z,81.70
2023-01-29T10:32:56.850Z,81.60
2023-01-29T10:36:00.353Z,81.60
2023-01-29T10:38:34.055Z,81.70
2023-01-29T10:41:10.602Z,81.70
2023-01-29T10:44:15.184Z,81.70
2023-01-29T10:46:54.493Z,81.80
2023-01-29T10:49:43.792Z,82.00
2023-01-29T10:52:41.753Z,82.00
2023-01-29T10:55:29.631Z,82.10
2023-01-29T10:58:09.305Z,82.20
2023-01-29T11:00:39.898Z,82.10
2023-01-29T11:03:28.656Z,82.30
2023-01-29T11:06:20.264Z,82.20
2023-01-29T11:08:57.008Z,82.10
2023-01-29T11:11:49.399Z,82.20
2023-01-29T11:14:30.492Z,82.30
2023-01-29T11:16:58.240Z,82.20
2023-01-29T11:19:40.824Z,82.30
2023-01-29T11:22:17.553Z,82.30
2023-01-29T11:24:45.250Z,82.30
2023-01-29T11:27:35.718Z,82.40
2023-01-29T11:30:03.851Z,82.50
2023-01-29T11:32:35.312Z,82.50
2023-01-29T11:35:04.699Z,82.50
2023-01-29T11:37:33.602Z,82.60
2023-01-29T11:40:01.063Z,82.60
2023-01-29T11:42:32.009Z,82.60
2023-01-29T11:44:59.803Z,82.80
2023-01-29T11:47:29.573Z,82.60
2023-01-29T11:50:03.085Z,82.60
2023-01-29T11:52:42.473Z,82.70
2023-01-29T11:55:23.863Z,82.60
2023-01-29T11:58:29.016Z,82.60
2023-01-29T12:00:59.311Z,82.70
2023-01-29T12:03:35.875Z,82.70
2023-01-29T12:06:37.474Z,82.80
2023-01-29T12:09:17.851Z,82.90
2023-01-29T12:11:45.472Z,82.90
2023-01-29T12:14:34.390Z,82.80
2023-01-29T12:17:09.033Z,82.80
2023-01-29T12:19:59.354Z,82.80
2023-01-29T12:22:41.847Z,82.90
2023-01-29T12:25:19.593Z,83.00
2023-01-29T12:28:27.159Z,83.00
2023-01-29T12:31:01.035Z,83.10
2023-01-29T12:33:48.789Z,83.30
2023-01-29T12:36:44.352Z,83.20
2023-01-29T12:39:16.645Z,83.30
2023-01-29T12:41:51.061Z,83.40
2023-01-29T12:44:31.793Z,83.40
2023-01-29T12:47:05.412Z,83.40
2023-01-29T12:49:39.446Z,83.30
2023-01-29T12:52:09.732Z,83.40
2023-01-29T12:54:41.683Z,83.50
2023-01-29T12:57:37.888Z,83.40
2023-01-29T13:00:16.693Z,83.50
2023-01-29T13:02:59.098Z,83.60
2023-01-29T13:05:31.610Z,83.40
2023-01-29T13:08:05.345Z,83.50
2023-01-29T13:10:38.843Z,83.50
2023-01-29T13:13:18.103Z,83.60
2023-01-29T13:15:47.304Z,83.50
2023-01-29T13:18:34.262Z,83.40
2023-01-29T13:21:05.837Z,83.50
2023-01-29T13:23:43.158Z,83.60
2023-01-29T13:26:13.988Z,83.50
2023-01-29T13:28:45.614Z,83.40
2023-01-29T13:31:23.935Z,83.90
2023-01-29T13:34:09.139Z,83.40
2023-01-29T13:36:42.580Z,83.40
2023-01-29T13:39:23.362Z,83.40
2023-01-29T13:41:52.589Z,83.30
2023-01-29T13:44:28.428Z,83.20
2023-01-29T13:46:55.993Z,83.30
2023-01-29T13:49:42.973Z,83.20
2023-01-29T13:52:35.570Z,83.20
2023-01-29T13:55:06.097Z,83.10
2023-01-29T13:57:56.284Z,83.10
2023-01-29T14:00:31.237Z,83.10
2023-01-29T14:03:01.701Z,83.00
2023-01-29T14:05:32.493Z,83.00
2023-01-29T14:08:01.745Z,83.00
2023-01-29T14:10:31.887Z,83.00
2023-01-29T14:13:23.551Z,82.90
2023-01-29T14:15:56.597Z,82.90
2023-01-29T14:18:28.873Z,82.90
2023-01-29T14:21:12.122Z,83.00
2023-01-29T14:24:00.154Z,83.00
2023-01-29T14:26:46.019Z,83.10
2023-01-29T14:29:18.741Z,83.20
2023-01-29T14:32:06.876Z,83.20
2023-01-29T14:34:45.273Z,83.20
2023-01-29T14:37:15.703Z,83.20
2023-01-29T14:39:51.204Z,83.20
2023-01-29T14:42:23.933Z,83.10
2023-01-29T14:45:01.985Z,83.10
2023-01-29T14:47:35.198Z,83.10
2023-01-29T14:50:39.409Z,83.20
2023-01-29T14:53:31.159Z,83.10
2023-01-29T14:56:03.458Z,83.20
2023-01-29T14:58:56.252Z,83.20
2023-01-29T15:01:47.994Z,83.20
2023-01-29T15:04:21.683Z,83.20
2023-01-29T15:06:57.707Z,83.20
2023-01-29T15:09:36.347Z,83.20
2023-01-29T15:12:09.699Z,83.20
2023-01-29T15:14:43.633Z,83.20
2023-01-29T15:17:46.297Z,83.20
2023-01-29T15:20:34.550Z,83.10
2023-01-29T15:23:06.395Z,83.20
2023-01-29T15:25:47.336Z,83.10
2023-01-29T15:28:15.970Z,83.20
2023-01-29T15:30:45.209Z,83.20
2023-01-29T15:33:15.271Z,83.30
2023-01-29T15:35:43.513Z,83.30
2023-01-29T15:38:22.283Z,83.40
2023-01-29T15:41:01.358Z,83.30
2023-01-29T15:43:36.897Z,83.40
2023-01-29T15:46:15.349Z,83.40
2023-01-29T15:48:44.902Z,83.30
2023-01-29T15:51:21.724Z,83.30
2023-01-29T15:53:55.533Z,83.30
2023-01-29T15:56:37.307Z,83.20
2023-01-29T15:59:09.701Z,83.20
2023-01-29T16:01:37.483Z,83.30
2023-01-29T16:04:06.392Z,83.20
2023-01-29T16:06:40.120Z,83.30
2023-01-29T16:09:08.710Z,83.20
2023-01-29T16:11:36.742Z,83.30
2023-01-29T16:14:05.636Z,83.30
2023-01-29T16:16:33.244Z,83.30
2023-01-29T16:19:01.487Z,83.20
2023-01-29T16:21:37.360Z,83.30
2023-01-29T16:24:14.159Z,83.30
2023-01-29T16:26:47.963Z,83.30
2023-01-29T16:29:24.994Z,83.30
2023-01-29T16:32:00.773Z,83.30
2023-01-29T16:34:28.333Z,83.40
2023-01-29T16:36:56.705Z,83.40
2023-01-29T16:39:28.366Z,83.40
2023-01-29T16:42:22.901Z,83.40
2023-01-29T16:44:54.962Z,83.50
2023-01-29T16:47:43.797Z,83.50
2023-01-29T16:50:46.336Z,83.50
2023-01-29T16:53:24.754Z,83.50
2023-01-29T16:55:53.358Z,83.60
2023-01-29T16:58:28.373Z,83.60
2023-01-29T17:01:17.667Z,83.60
2023-01-29T17:03:49.527Z,83.70
2023-01-29T17:06:23.942Z,83.60
2023-01-29T17:08:52.669Z,83.60
2023-01-29T17:11:37.743Z,83.60
2023-01-29T17:14:07.587Z,83.60
2023-01-29T17:16:53.282Z,83.70
2023-01-29T17:19:21.802Z,83.70
2023-01-29T17:21:49.342Z,83.70
2023-01-29T17:24:16.820Z,83.70
2023-01-29T17:26:44.618Z,83.80
2023-01-29T17:29:21.175Z,83.70
2023-01-29T17:31:48.755Z,83.80
2023-01-29T17:34:17.368Z,83.70
2023-01-29T17:36:45.537Z,83.80
2023-01-29T17:39:21.832Z,83.80
2023-01-29T17:41:59.113Z,83.80
2023-01-29T17:44:26.579Z,83.80
2023-01-29T17:46:54.519Z,83.80
2023-01-29T17:49:29.951Z,83.80
2023-01-29T17:51:57.732Z,83.80
2023-01-29T17:54:25.966Z,83.80
2023-01-29T17:56:54.490Z,83.80
2023-01-29T17:59:24.249Z,83.70
2023-01-29T18:01:53.430Z,83.70
2023-01-29T18:04:21.276Z,83.60
2023-01-29T18:06:51.246Z,83.60
2023-01-29T18:09:20.852Z,83.60
2023-01-29T18:11:48.820Z,83.60
2023-01-29T18:14:16.792Z,83.70
2023-01-29T18:16:45.333Z,83.70
2023-01-29T18:19:19.541Z,83.60
2023-01-29T18:21:47.682Z,83.60
2023-01-29T18:24:15.784Z,83.60
2023-01-29T18:26:43.698Z,83.60
2023-01-29T18:29:11.277Z,83.60
2023-01-29T18:31:39.008Z,83.60
2023-01-29T18:34:06.720Z,83.60
2023-01-29T18:36:34.430Z,83.60
2023-01-29T18:39:02.097Z,83.50
2023-01-29T18:41:29.623Z,83.50
2023-01-29T18:43:57.135Z,83.40
2023-01-29T18:46:24.662Z,83.40
2023-01-29T18:48:52.263Z,83.40
2023-01-29T18:51:20.001Z,83.20
2023-01-29T18:53:51.736Z,83.60
2023-01-29T18:56:20.059Z,83.00
2023-01-29T18:58:53.067Z,83.00
2023-01-29T19:01:23.619Z,83.00
2023-01-29T19:03:51.492Z,83.00
2023-01-29T19:06:19.267Z,82.90
2023-01-29T19:08:47.778Z,82.80
2023-01-29T19:11:16.238Z,83.40
2023-01-29T19:13:43.896Z,82.80
2023-01-29T19:16:13.766Z,82.80
2023-01-29T19:18:41.710Z,82.70
2023-01-29T19:21:11.454Z,82.40
2023-01-29T19:23:39.352Z,82.40
2023-01-29T19:26:09.245Z,82.50
2023-01-29T19:28:37.047Z,82.50
2023-01-29T19:31:04.674Z,82.40
2023-01-29T19:33:32.534Z,82.40
2023-01-29T19:36:01.136Z,82.40
2023-01-29T19:38:29.024Z,82.40
2023-01-29T19:40:57.677Z,82.40
2023-01-29T19:43:28.934Z,82.50
2023-01-29T19:45:59.732Z,82.40
2023-01-29T19:48:28.314Z,82.40
2023-01-29T19:51:02.924Z,82.50
2023-01-29T19:53:33.848Z,82.60
2023-01-29T19:56:05.701Z,82.70
2023-01-29T19:58:34.128Z,82.80
2023-01-29T20:01:14.808Z,82.90
2023-01-29T20:03:43.354Z,82.90
2023-01-29T20:06:11.735Z,82.90
2023-01-29T20:08:39.494Z,83.00
2023-01-29T20:11:11.749Z,83.00
2023-01-29T20:13:39.506Z,83.00
2023-01-29T20:16:08.362Z,83.00
2023-01-29T20:18:38.417Z,83.00
2023-01-29T20:21:09.511Z,83.10
2023-01-29T20:23:39.924Z,83.00
2023-01-29T20:26:11.463Z,83.10
2023-01-29T20:28:40.000Z,83.10
2023-01-29T20:31:09.812Z,83.10
2023-01-29T20:33:41.218Z,83.10
2023-01-29T20:36:12.511Z,83.20
2023-01-29T20:38:40.731Z,83.20
2023-01-29T20:41:15.292Z,83.20
2023-01-29T20:43:45.891Z,83.20
2023-01-29T20:46:14.027Z,83.30
2023-01-29T20:48:44.843Z,83.30
2023-01-29T20:51:19.281Z,83.20
2023-01-29T20:53:48.475Z,83.30
2023-01-29T20:56:17.920Z,83.30
2023-01-29T20:58:47.012Z,83.30
2023-01-29T21:01:17.240Z,83.30
2023-01-29T21:03:45.257Z,83.30
2023-01-29T21:06:13.652Z,83.40
2023-01-29T21:08:41.518Z,83.40
2023-01-29T21:11:10.104Z,83.40
2023-01-29T21:13:38.157Z,83.30
2023-01-29T21:16:06.223Z,83.40
2023-01-29T21:18:33.737Z,83.40
2023-01-29T21:21:01.528Z,83.40
2023-01-29T21:23:29.465Z,83.30
2023-01-29T21:26:04.614Z,83.40
2023-01-29T21:28:33.565Z,83.30
2023-01-29T21:31:10.347Z,83.40
2023-01-29T21:33:38.463Z,83.50
2023-01-29T21:36:06.810Z,83.50
2023-01-29T21:38:34.379Z,83.50
2023-01-29T21:41:04.689Z,83.50
2023-01-29T21:43:32.408Z,83.50
2023-01-29T21:46:05.127Z,83.50
2023-01-29T21:48:32.834Z,83.50
2023-01-29T21:51:00.380Z,83.50
2023-01-29T21:53:28.127Z,83.60
2023-01-29T21:56:03.451Z,83.70
2023-01-29T21:58:31.051Z,83.80
2023-01-29T22:01:35.548Z,83.80
2023-01-29T22:03:47.579Z,83.90
2023-01-29T22:06:15.739Z,84.00
2023-01-29T22:08:43.285Z,84.00
2023-01-29T22:11:11.514Z,84.00
2023-01-29T22:13:39.339Z,84.00
2023-01-29T22:16:07.501Z,84.00
2023-01-29T22:18:35.427Z,84.00
2023-01-29T22:21:03.209Z,84.00
2023-01-29T22:23:31.642Z,84.00
2023-01-29T22:26:06.872Z,84.00
2023-01-29T22:28:35.371Z,84.00
2023-01-29T22:31:04.127Z,84.50
2023-01-29T22:33:32.285Z,83.90
2023-01-29T22:35:59.956Z,83.90
2023-01-29T22:38:27.485Z,84.00
2023-01-29T22:40:56.828Z,84.00
2023-01-29T22:43:26.281Z,84.00
2023-01-29T22:45:53.903Z,84.00
2023-01-29T22:48:25.473Z,83.90
2023-01-29T22:51:10.155Z,84.00
2023-01-29T22:53:39.987Z,84.00
2023-01-29T22:56:08.468Z,84.00
2023-01-29T22:58:35.915Z,84.00
2023-01-29T23:01:03.845Z,84.00
2023-01-29T23:03:31.325Z,84.00
2023-01-29T23:06:00.432Z,84.50
2023-01-29T23:08:28.092Z,84.00
2023-01-29T23:10:55.847Z,84.00
2023-01-29T23:13:23.267Z,84.10
2023-01-29T23:15:59.647Z,84.00
2023-01-29T23:18:27.133Z,84.00
2023-01-29T23:20:58.054Z,83.90
2023-01-29T23:23:25.628Z,83.90
2023-01-29T23:26:16.963Z,83.90
2023-01-29T23:28:44.908Z,83.90
2023-01-29T23:31:12.812Z,84.00
2023-01-29T23:33:40.455Z,83.90
2023-01-29T23:36:08.502Z,83.90
2023-01-29T23:38:36.067Z,83.90
2023-01-29T23:41:03.867Z,83.80
2023-01-29T23:43:31.989Z,83.70
2023-01-29T23:45:59.969Z,83.70
2023-01-29T23:48:27.616Z,83.60
2023-01-29T23:50:55.175Z,83.60
2023-01-29T23:53:22.669Z,83.40
2023-01-29T23:56:16.673Z,83.50
2023-01-29T23:58:45.150Z,83.30
